sensor_id;sensor_type;location;lat;lon;timestamp;pressure;altitude;pressure_sealevel;temperature;humidity
59608;BME280;45426;44.726;10.390;2023-02-20T00:00:34;101455.97;;;7.52;100.00
59608;BME280;45426;44.726;10.390;2023-02-20T00:03:01;101458.84;;;6.63;100.00
59608;BME280;45426;44.726;10.390;2023-02-20T00:05:26;101457.94;;;6.77;100.00
59608;BME280;45426;44.726;10.390;2023-02-20T00:07:52;101461.16;;;6.79;100.00
59608;BME280;45426;44.726;10.390;2023-02-20T00:10:18;101459.50;;;6.84;100.00
59608;BME280;45426;44.726;10.390;2023-02-20T00:12:43;101460.50;;;6.98;100.00
59608;BME280;45426;44.726;10.390;2023-02-20T00:15:13;101459.81;;;7.16;100.00
59608;BME280;45426;44.726;10.390;2023-02-20T00:17:38;101460.41;;;6.74;100.00
59608;BME280;45426;44.726;10.390;2023-02-20T00:20:04;101464.00;;;6.98;100.00
59608;BME280;45426;44.726;10.390;2023-02-20T00:22:30;101464.38;;;6.87;100.00
59608;BME280;45426;44.726;10.390;2023-02-20T00:24:56;101467.38;;;7.14;100.00
59608;BME280;45426;44.726;10.390;2023-02-20T00:27:21;101476.84;;;6.77;100.00
59608;BME280;45426;44.726;10.390;2023-02-20T00:29:47;101478.06;;;6.51;100.00
59608;BME280;45426;44.726;10.390;2023-02-20T00:32:12;101476.22;;;6.46;100.00
59608;BME280;45426;44.726;10.390;2023-02-20T00:34:38;101487.41;;;6.74;100.00
59608;BME280;45426;44.726;10.390;2023-02-20T00:37:04;101477.50;;;5.94;100.00
59608;BME280;45426;44.726;10.390;2023-02-20T00:39:30;101478.41;;;5.53;100.00
59608;BME280;45426;44.726;10.390;2023-02-20T00:41:55;101478.97;;;5.50;100.00
59608;BME280;45426;44.726;10.390;2023-02-20T00:44:22;101472.16;;;5.73;100.00
59608;BME280;45426;44.726;10.390;2023-02-20T00:46:47;101483.78;;;5.53;100.00
59608;BME280;45426;44.726;10.390;2023-02-20T00:49:13;101471.09;;;5.59;100.00
59608;BME280;45426;44.726;10.390;2023-02-20T00:51:38;101488.41;;;5.37;100.00
59608;BME280;45426;44.726;10.390;2023-02-20T00:54:04;101481.66;;;5.19;100.00
59608;BME280;45426;44.726;10.390;2023-02-20T00:56:30;101483.53;;;5.60;100.00
59608;BME280;45426;44.726;10.390;2023-02-20T00:58:55;101478.59;;;5.82;100.00
59608;BME280;45426;44.726;10.390;2023-02-20T01:01:21;101468.31;;;6.10;100.00
59608;BME280;45426;44.726;10.390;2023-02-20T01:03:47;101470.91;;;5.04;100.00
59608;BME280;45426;44.726;10.390;2023-02-20T01:06:12;101481.91;;;4.72;100.00
59608;BME280;45426;44.726;10.390;2023-02-20T01:08:38;101488.34;;;4.60;100.00
59608;BME280;45426;44.726;10.390;2023-02-20T01:11:03;101489.97;;;4.66;100.00
59608;BME280;45426;44.726;10.390;2023-02-20T01:13:29;101497.25;;;4.76;100.00
59608;BME280;45426;44.726;10.390;2023-02-20T01:15:54;101490.28;;;5.21;100.00
59608;BME280;45426;44.726;10.390;2023-02-20T01:18:20;101488.13;;;5.23;100.00
59608;BME280;45426;44.726;10.390;2023-02-20T01:20:45;101488.13;;;4.98;100.00
59608;BME280;45426;44.726;10.390;2023-02-20T01:23:11;101480.28;;;5.53;100.00
59608;BME280;45426;44.726;10.390;2023-02-20T01:25:36;101478.16;;;5.19;100.00
59608;BME280;45426;44.726;10.390;2023-02-20T01:28:02;101482.47;;;5.20;100.00
59608;BME280;45426;44.726;10.390;2023-02-20T01:30:27;101478.16;;;5.34;100.00
59608;BME280;45426;44.726;10.390;2023-02-20T01:32:53;101474.34;;;5.61;100.00
59608;BME280;45426;44.726;10.390;2023-02-20T01:35:18;101476.81;;;5.21;100.00
59608;BME280;45426;44.726;10.390;2023-02-20T01:37:44;101482.44;;;4.69;100.00
59608;BME280;45426;44.726;10.390;2023-02-20T01:40:20;101497.31;;;5.28;100.00
59608;BME280;45426;44.726;10.390;2023-02-20T01:42:46;101480.28;;;5.48;100.00
59608;BME280;45426;44.726;10.390;2023-02-20T01:47:48;101471.94;;;5.54;100.00
59608;BME280;45426;44.726;10.390;2023-02-20T01:50:15;101485.63;;;4.55;100.00
59608;BME280;45426;44.726;10.390;2023-02-20T01:52:43;101482.97;;;4.71;100.00
59608;BME280;45426;44.726;10.390;2023-02-20T01:55:12;101484.88;;;4.75;100.00
59608;BME280;45426;44.726;10.390;2023-02-20T01:57:50;101495.09;;;4.68;100.00
59608;BME280;45426;44.726;10.390;2023-02-20T02:00:18;101485.16;;;5.20;100.00
59608;BME280;45426;44.726;10.390;2023-02-20T02:03:09;101475.75;;;5.07;100.00
59608;BME280;45426;44.726;10.390;2023-02-20T02:05:38;101483.25;;;5.46;100.00
59608;BME280;45426;44.726;10.390;2023-02-20T02:08:06;101490.25;;;4.70;100.00
59608;BME280;45426;44.726;10.390;2023-02-20T02:10:43;101496.03;;;4.21;100.00
59608;BME280;45426;44.726;10.390;2023-02-20T02:13:11;101493.19;;;4.63;100.00
59608;BME280;45426;44.726;10.390;2023-02-20T02:15:36;101510.03;;;4.23;100.00
59608;BME280;45426;44.726;10.390;2023-02-20T02:18:06;101508.53;;;3.95;100.00
59608;BME280;45426;44.726;10.390;2023-02-20T02:26:21;101506.13;;;4.66;100.00
59608;BME280;45426;44.726;10.390;2023-02-20T02:29:25;101507.25;;;5.27;100.00
59608;BME280;45426;44.726;10.390;2023-02-20T02:37:49;101524.03;;;4.35;100.00
59608;BME280;45426;44.726;10.390;2023-02-20T02:43:26;101535.34;;;4.32;100.00
59608;BME280;45426;44.726;10.390;2023-02-20T02:45:54;101538.88;;;4.38;100.00
59608;BME280;45426;44.726;10.390;2023-02-20T02:48:27;101540.81;;;4.53;100.00
59608;BME280;45426;44.726;10.390;2023-02-20T02:50:58;101539.69;;;4.43;100.00
59608;BME280;45426;44.726;10.390;2023-02-20T02:53:25;101549.44;;;4.55;100.00
59608;BME280;45426;44.726;10.390;2023-02-20T02:55:50;101550.50;;;4.54;100.00
59608;BME280;45426;44.726;10.390;2023-02-20T02:58:17;101560.34;;;4.27;100.00
59608;BME280;45426;44.726;10.390;2023-02-20T03:00:56;101562.16;;;4.80;100.00
59608;BME280;45426;44.726;10.390;2023-02-20T03:03:28;101580.56;;;5.24;100.00
59608;BME280;45426;44.726;10.390;2023-02-20T03:06:08;101579.53;;;4.52;100.00
59608;BME280;45426;44.726;10.390;2023-02-20T03:11:29;101573.44;;;4.77;100.00
59608;BME280;45426;44.726;10.390;2023-02-20T03:20:20;101580.28;;;5.97;100.00
59608;BME280;45426;44.726;10.390;2023-02-20T03:22:49;101578.66;;;5.24;100.00
59608;BME280;45426;44.726;10.390;2023-02-20T03:25:24;101575.13;;;4.98;100.00
59608;BME280;45426;44.726;10.390;2023-02-20T03:28:09;101586.69;;;4.89;100.00
59608;BME280;45426;44.726;10.390;2023-02-20T03:31:01;101595.66;;;5.35;100.00
59608;BME280;45426;44.726;10.390;2023-02-20T03:33:33;101595.84;;;5.03;100.00
59608;BME280;45426;44.726;10.390;2023-02-20T03:36:25;101601.25;;;5.03;100.00
59608;BME280;45426;44.726;10.390;2023-02-20T03:39:16;101601.56;;;5.22;100.00
59608;BME280;45426;44.726;10.390;2023-02-20T03:42:03;101595.13;;;5.49;100.00
59608;BME280;45426;44.726;10.390;2023-02-20T03:44:50;101599.69;;;5.28;100.00
59608;BME280;45426;44.726;10.390;2023-02-20T03:47:17;101594.28;;;5.07;100.00
59608;BME280;45426;44.726;10.390;2023-02-20T03:49:46;101611.28;;;5.43;100.00
59608;BME280;45426;44.726;10.390;2023-02-20T03:52:14;101599.16;;;5.92;100.00
59608;BME280;45426;44.726;10.390;2023-02-20T03:54:40;101616.69;;;6.05;100.00
59608;BME280;45426;44.726;10.390;2023-02-20T03:57:12;101608.31;;;6.17;100.00
59608;BME280;45426;44.726;10.390;2023-02-20T03:59:53;101608.25;;;6.43;100.00
59608;BME280;45426;44.726;10.390;2023-02-20T04:02:28;101609.94;;;5.56;100.00
59608;BME280;45426;44.726;10.390;2023-02-20T04:04:57;101618.28;;;5.39;100.00
59608;BME280;45426;44.726;10.390;2023-02-20T04:07:27;101633.69;;;5.54;100.00
59608;BME280;45426;44.726;10.390;2023-02-20T04:09:57;101630.44;;;5.37;100.00
59608;BME280;45426;44.726;10.390;2023-02-20T04:12:25;101640.94;;;5.33;100.00
59608;BME280;45426;44.726;10.390;2023-02-20T04:14:53;101639.03;;;5.29;100.00
59608;BME280;45426;44.726;10.390;2023-02-20T04:17:23;101635.22;;;5.14;100.00
59608;BME280;45426;44.726;10.390;2023-02-20T04:19:51;101628.03;;;5.56;100.00
59608;BME280;45426;44.726;10.390;2023-02-20T04:22:20;101628.81;;;5.77;100.00
59608;BME280;45426;44.726;10.390;2023-02-20T04:27:14;101615.88;;;5.63;100.00
59608;BME280;45426;44.726;10.390;2023-02-20T04:29:40;101623.16;;;6.14;100.00
59608;BME280;45426;44.726;10.390;2023-02-20T04:32:06;101614.78;;;5.85;100.00
59608;BME280;45426;44.726;10.390;2023-02-20T04:34:31;101630.97;;;5.49;100.00
59608;BME280;45426;44.726;10.390;2023-02-20T04:37:07;101630.97;;;5.90;100.00
59608;BME280;45426;44.726;10.390;2023-02-20T04:39:33;101628.56;;;5.63;100.00
59608;BME280;45426;44.726;10.390;2023-02-20T04:41:59;101629.34;;;5.74;100.00
59608;BME280;45426;44.726;10.390;2023-02-20T04:44:24;101636.34;;;5.44;100.00
59608;BME280;45426;44.726;10.390;2023-02-20T04:46:56;101639.59;;;5.36;100.00
59608;BME280;45426;44.726;10.390;2023-02-20T04:49:22;101634.72;;;5.33;100.00
59608;BME280;45426;44.726;10.390;2023-02-20T04:51:47;101642.81;;;5.53;100.00
59608;BME280;45426;44.726;10.390;2023-02-20T04:54:13;101646.56;;;5.27;100.00
59608;BME280;45426;44.726;10.390;2023-02-20T04:56:38;101650.38;;;5.46;100.00
59608;BME280;45426;44.726;10.390;2023-02-20T04:59:04;101650.69;;;6.06;100.00
59608;BME280;45426;44.726;10.390;2023-02-20T05:01:29;101650.69;;;6.06;100.00
59608;BME280;45426;44.726;10.390;2023-02-20T05:03:55;101645.50;;;6.30;100.00
59608;BME280;45426;44.726;10.390;2023-02-20T05:06:20;101643.09;;;5.93;100.00
59608;BME280;45426;44.726;10.390;2023-02-20T05:08:46;101651.72;;;5.33;100.00
59608;BME280;45426;44.726;10.390;2023-02-20T05:11:11;101665.94;;;5.13;100.00
59608;BME280;45426;44.726;10.390;2023-02-20T05:13:37;101668.41;;;5.30;100.00
59608;BME280;45426;44.726;10.390;2023-02-20T05:16:02;101669.81;;;5.48;100.00
59608;BME280;45426;44.726;10.390;2023-02-20T05:18:28;101665.97;;;5.18;100.00
59608;BME280;45426;44.726;10.390;2023-02-20T05:20:54;101664.84;;;5.14;100.00
59608;BME280;45426;44.726;10.390;2023-02-20T05:23:38;101662.06;;;4.83;100.00
59608;BME280;45426;44.726;10.390;2023-02-20T05:26:11;101668.03;;;4.96;100.00
59608;BME280;45426;44.726;10.390;2023-02-20T05:28:37;101673.72;;;4.99;100.00
59608;BME280;45426;44.726;10.390;2023-02-20T05:31:04;101676.03;;;4.75;100.00
59608;BME280;45426;44.726;10.390;2023-02-20T05:33:30;101671.47;;;4.33;100.00
59608;BME280;45426;44.726;10.390;2023-02-20T05:35:55;101653.19;;;4.35;100.00
59608;BME280;45426;44.726;10.390;2023-02-20T05:38:21;101665.63;;;4.46;100.00
59608;BME280;45426;44.726;10.390;2023-02-20T05:40:46;101673.78;;;4.57;100.00
59608;BME280;45426;44.726;10.390;2023-02-20T05:43:11;101672.53;;;4.27;100.00
59608;BME280;45426;44.726;10.390;2023-02-20T05:45:37;101667.19;;;4.37;100.00
59608;BME280;45426;44.726;10.390;2023-02-20T05:48:02;101663.00;;;4.57;100.00
59608;BME280;45426;44.726;10.390;2023-02-20T05:50:28;101667.00;;;5.12;100.00
59608;BME280;45426;44.726;10.390;2023-02-20T05:52:53;101662.56;;;4.80;100.00
59608;BME280;45426;44.726;10.390;2023-02-20T05:55:19;101668.91;;;5.17;100.00
59608;BME280;45426;44.726;10.390;2023-02-20T05:57:44;101665.47;;;5.42;100.00
59608;BME280;45426;44.726;10.390;2023-02-20T06:00:10;101667.44;;;4.83;100.00
59608;BME280;45426;44.726;10.390;2023-02-20T06:02:35;101665.72;;;4.57;100.00
59608;BME280;45426;44.726;10.390;2023-02-20T06:05:02;101667.00;;;4.06;100.00
59608;BME280;45426;44.726;10.390;2023-02-20T06:07:29;101674.25;;;3.74;100.00
59608;BME280;45426;44.726;10.390;2023-02-20T06:09:55;101676.00;;;3.90;100.00
59608;BME280;45426;44.726;10.390;2023-02-20T06:12:21;101688.72;;;4.37;100.00
59608;BME280;45426;44.726;10.390;2023-02-20T06:14:46;101681.69;;;4.79;100.00
59608;BME280;45426;44.726;10.390;2023-02-20T06:17:12;101674.28;;;4.54;100.00
59608;BME280;45426;44.726;10.390;2023-02-20T06:19:37;101681.75;;;4.94;100.00
59608;BME280;45426;44.726;10.390;2023-02-20T06:22:03;101685.25;;;4.42;100.00
59608;BME280;45426;44.726;10.390;2023-02-20T06:24:28;101687.69;;;4.43;100.00
59608;BME280;45426;44.726;10.390;2023-02-20T06:26:54;101694.59;;;4.29;100.00
59608;BME280;45426;44.726;10.390;2023-02-20T06:29:19;101697.63;;;4.05;100.00
59608;BME280;45426;44.726;10.390;2023-02-20T06:31:45;101698.28;;;3.85;100.00
59608;BME280;45426;44.726;10.390;2023-02-20T06:34:11;101697.63;;;4.05;100.00
59608;BME280;45426;44.726;10.390;2023-02-20T06:36:38;101702.47;;;4.03;100.00
59608;BME280;45426;44.726;10.390;2023-02-20T06:39:05;101709.13;;;4.76;100.00
59608;BME280;45426;44.726;10.390;2023-02-20T06:41:31;101694.03;;;4.75;100.00
59608;BME280;45426;44.726;10.390;2023-02-20T06:43:57;101708.31;;;4.70;100.00
59608;BME280;45426;44.726;10.390;2023-02-20T06:46:23;101715.09;;;4.88;100.00
59608;BME280;45426;44.726;10.390;2023-02-20T06:48:52;101715.09;;;4.83;100.00
59608;BME280;45426;44.726;10.390;2023-02-20T06:51:20;101715.34;;;4.81;100.00
59608;BME280;45426;44.726;10.390;2023-02-20T06:53:46;101720.94;;;5.22;100.00
59608;BME280;45426;44.726;10.390;2023-02-20T06:56:17;101724.84;;;5.93;100.00
59608;BME280;45426;44.726;10.390;2023-02-20T06:58:49;101726.13;;;5.44;100.00
59608;BME280;45426;44.726;10.390;2023-02-20T07:01:16;101731.63;;;6.21;100.00
59608;BME280;45426;44.726;10.390;2023-02-20T07:03:41;101736.75;;;6.28;100.00
59608;BME280;45426;44.726;10.390;2023-02-20T07:06:07;101732.41;;;6.43;100.00
59608;BME280;45426;44.726;10.390;2023-02-20T07:08:33;101734.63;;;7.26;100.00
59608;BME280;45426;44.726;10.390;2023-02-20T07:10:58;101729.75;;;7.23;100.00
59608;BME280;45426;44.726;10.390;2023-02-20T07:13:23;101734.88;;;7.25;100.00
59608;BME280;45426;44.726;10.390;2023-02-20T07:15:49;101731.28;;;7.45;100.00
59608;BME280;45426;44.726;10.390;2023-02-20T07:18:15;101729.47;;;7.74;100.00
59608;BME280;45426;44.726;10.390;2023-02-20T07:20:42;101741.09;;;7.75;100.00
59608;BME280;45426;44.726;10.390;2023-02-20T07:23:07;101744.22;;;7.53;100.00
59608;BME280;45426;44.726;10.390;2023-02-20T07:25:33;101748.69;;;7.73;100.00
59608;BME280;45426;44.726;10.390;2023-02-20T07:27:58;101750.91;;;7.61;100.00
59608;BME280;45426;44.726;10.390;2023-02-20T07:30:24;101757.13;;;7.11;100.00
59608;BME280;45426;44.726;10.390;2023-02-20T07:32:50;101757.09;;;7.16;100.00
59608;BME280;45426;44.726;10.390;2023-02-20T07:35:15;101753.00;;;7.24;100.00
59608;BME280;45426;44.726;10.390;2023-02-20T07:37:41;101755.28;;;7.56;100.00
59608;BME280;45426;44.726;10.390;2023-02-20T07:40:07;101764.03;;;7.33;100.00
59608;BME280;45426;44.726;10.390;2023-02-20T07:42:33;101767.09;;;7.71;100.00
59608;BME280;45426;44.726;10.390;2023-02-20T07:44:58;101759.97;;;7.85;100.00
59608;BME280;45426;44.726;10.390;2023-02-20T07:47:23;101765.03;;;7.97;100.00
59608;BME280;45426;44.726;10.390;2023-02-20T07:49:49;101770.41;;;8.36;100.00
59608;BME280;45426;44.726;10.390;2023-02-20T07:52:14;101763.25;;;7.82;100.00
59608;BME280;45426;44.726;10.390;2023-02-20T07:54:40;101766.31;;;8.44;100.00
59608;BME280;45426;44.726;10.390;2023-02-20T07:57:05;101757.56;;;8.82;100.00
59608;BME280;45426;44.726;10.390;2023-02-20T07:59:31;101767.88;;;8.80;100.00
59608;BME280;45426;44.726;10.390;2023-02-20T08:01:56;101777.13;;;8.10;100.00
59608;BME280;45426;44.726;10.390;2023-02-20T08:04:22;101774.25;;;7.91;100.00
59608;BME280;45426;44.726;10.390;2023-02-20T08:06:47;101775.63;;;8.62;100.00
59608;BME280;45426;44.726;10.390;2023-02-20T08:09:12;101774.16;;;8.41;100.00
59608;BME280;45426;44.726;10.390;2023-02-20T08:11:38;101772.28;;;8.70;100.00
59608;BME280;45426;44.726;10.390;2023-02-20T08:14:05;101773.38;;;8.69;100.00
59608;BME280;45426;44.726;10.390;2023-02-20T08:16:30;101783.09;;;8.76;100.00
59608;BME280;45426;44.726;10.390;2023-02-20T08:18:58;101773.81;;;8.82;100.00
59608;BME280;45426;44.726;10.390;2023-02-20T08:21:23;101772.66;;;8.88;100.00
59608;BME280;45426;44.726;10.390;2023-02-20T08:23:49;101782.47;;;8.54;100.00
59608;BME280;45426;44.726;10.390;2023-02-20T08:26:17;101784.44;;;8.73;100.00
59608;BME280;45426;44.726;10.390;2023-02-20T08:28:42;101779.78;;;9.70;100.00
59608;BME280;45426;44.726;10.390;2023-02-20T08:31:07;101767.28;;;9.50;100.00
59608;BME280;45426;44.726;10.390;2023-02-20T08:33:33;101767.91;;;9.85;100.00
59608;BME280;45426;44.726;10.390;2023-02-20T08:35:58;101774.66;;;10.06;100.00
59608;BME280;45426;44.726;10.390;2023-02-20T08:38:31;101771.78;;;9.98;100.00
59608;BME280;45426;44.726;10.390;2023-02-20T08:40:58;101760.75;;;10.08;100.00
59608;BME280;45426;44.726;10.390;2023-02-20T08:43:24;101760.97;;;10.11;100.00
59608;BME280;45426;44.726;10.390;2023-02-20T08:45:50;101769.38;;;10.48;100.00
59608;BME280;45426;44.726;10.390;2023-02-20T08:48:15;101759.94;;;10.07;100.00
59608;BME280;45426;44.726;10.390;2023-02-20T08:50:41;101764.09;;;9.86;100.00
59608;BME280;45426;44.726;10.390;2023-02-20T08:53:07;101760.28;;;9.87;100.00
59608;BME280;45426;44.726;10.390;2023-02-20T08:55:32;101758.81;;;10.60;100.00
59608;BME280;45426;44.726;10.390;2023-02-20T08:57:58;101762.16;;;10.57;100.00
59608;BME280;45426;44.726;10.390;2023-02-20T09:00:23;101758.75;;;10.79;100.00
59608;BME280;45426;44.726;10.390;2023-02-20T09:02:49;101760.69;;;10.93;100.00
59608;BME280;45426;44.726;10.390;2023-02-20T09:05:15;101758.94;;;10.55;100.00
59608;BME280;45426;44.726;10.390;2023-02-20T09:07:41;101764.09;;;10.38;100.00
59608;BME280;45426;44.726;10.390;2023-02-20T09:10:07;101756.22;;;10.55;100.00
59608;BME280;45426;44.726;10.390;2023-02-20T09:12:33;101765.72;;;10.39;100.00
59608;BME280;45426;44.726;10.390;2023-02-20T09:14:59;101766.78;;;10.84;100.00
59608;BME280;45426;44.726;10.390;2023-02-20T09:17:25;101758.75;;;10.93;100.00
59608;BME280;45426;44.726;10.390;2023-02-20T09:19:51;101755.13;;;10.98;100.00
59608;BME280;45426;44.726;10.390;2023-02-20T09:22:23;101751.28;;;10.71;100.00
59608;BME280;45426;44.726;10.390;2023-02-20T09:24:51;101753.31;;;10.93;100.00
59608;BME280;45426;44.726;10.390;2023-02-20T09:27:16;101750.34;;;11.45;100.00
59608;BME280;45426;44.726;10.390;2023-02-20T09:29:42;101755.84;;;10.90;100.00
59608;BME280;45426;44.726;10.390;2023-02-20T09:32:09;101759.34;;;11.18;100.00
59608;BME280;45426;44.726;10.390;2023-02-20T09:34:34;101753.13;;;10.90;100.00
59608;BME280;45426;44.726;10.390;2023-02-20T09:37:00;101752.78;;;11.46;100.00
59608;BME280;45426;44.726;10.390;2023-02-20T09:39:25;101749.91;;;11.15;100.00
59608;BME280;45426;44.726;10.390;2023-02-20T09:50:48;101728.03;;;16.84;100.00
59608;BME280;45426;44.726;10.390;2023-02-20T09:53:34;101740.97;;;13.13;100.00
59608;BME280;45426;44.726;10.390;2023-02-20T09:56:02;101742.16;;;15.62;100.00
59608;BME280;45426;44.726;10.390;2023-02-20T09:58:48;101747.75;;;16.07;100.00
59608;BME280;45426;44.726;10.390;2023-02-20T10:01:18;101759.19;;;14.31;100.00
59608;BME280;45426;44.726;10.390;2023-02-20T10:06:19;101756.66;;;13.65;100.00
59608;BME280;45426;44.726;10.390;2023-02-20T10:08:49;101752.34;;;13.64;100.00
59608;BME280;45426;44.726;10.390;2023-02-20T10:11:23;101748.31;;;13.87;100.00
59608;BME280;45426;44.726;10.390;2023-02-20T10:14:00;101743.97;;;13.60;100.00
59608;BME280;45426;44.726;10.390;2023-02-20T10:22:31;101742.59;;;14.45;100.00
59608;BME280;45426;44.726;10.390;2023-02-20T10:32:58;101744.13;;;15.02;100.00
59608;BME280;45426;44.726;10.390;2023-02-20T10:35:31;101738.31;;;15.54;100.00
59608;BME280;45426;44.726;10.390;2023-02-20T10:38:03;101738.28;;;14.35;100.00
59608;BME280;45426;44.726;10.390;2023-02-20T10:40:36;101738.31;;;15.12;100.00
59608;BME280;45426;44.726;10.390;2023-02-20T10:43:37;101738.81;;;13.76;100.00
59608;BME280;45426;44.726;10.390;2023-02-20T10:46:00;101740.44;;;15.06;100.00
59608;BME280;45426;44.726;10.390;2023-02-20T10:48:30;101734.41;;;15.85;100.00
59608;BME280;45426;44.726;10.390;2023-02-20T10:53:54;101726.44;;;15.50;100.00
59608;BME280;45426;44.726;10.390;2023-02-20T10:58:55;101729.38;;;14.55;100.00
59608;BME280;45426;44.726;10.390;2023-02-20T11:01:24;101730.88;;;14.35;100.00
59608;BME280;45426;44.726;10.390;2023-02-20T11:03:58;101721.16;;;14.94;100.00
59608;BME280;45426;44.726;10.390;2023-02-20T11:06:30;101723.38;;;14.71;100.00
59608;BME280;45426;44.726;10.390;2023-02-20T11:08:56;101721.88;;;14.35;100.00
59608;BME280;45426;44.726;10.390;2023-02-20T11:11:34;101715.75;;;14.85;100.00
59608;BME280;45426;44.726;10.390;2023-02-20T11:14:10;101717.75;;;14.67;100.00
59608;BME280;45426;44.726;10.390;2023-02-20T11:16:41;101715.69;;;14.94;100.00
59608;BME280;45426;44.726;10.390;2023-02-20T11:19:14;101711.88;;;14.39;100.00
59608;BME280;45426;44.726;10.390;2023-02-20T11:21:45;101712.28;;;14.11;100.00
59608;BME280;45426;44.726;10.390;2023-02-20T11:24:29;101704.38;;;14.74;100.00
59608;BME280;45426;44.726;10.390;2023-02-20T11:26:59;101688.69;;;14.63;100.00
59608;BME280;45426;44.726;10.390;2023-02-20T11:29:32;101697.13;;;14.31;100.00
59608;BME280;45426;44.726;10.390;2023-02-20T11:37:35;101674.47;;;14.99;100.00
59608;BME280;45426;44.726;10.390;2023-02-20T11:40:01;101663.31;;;15.67;100.00
59608;BME280;45426;44.726;10.390;2023-02-20T11:42:33;101661.59;;;15.96;100.00
59608;BME280;45426;44.726;10.390;2023-02-20T11:47:36;101652.13;;;15.72;100.00
59608;BME280;45426;44.726;10.390;2023-02-20T11:50:17;101654.47;;;16.16;100.00
59608;BME280;45426;44.726;10.390;2023-02-20T11:53:02;101657.44;;;14.64;100.00
59608;BME280;45426;44.726;10.390;2023-02-20T11:55:33;101652.66;;;15.87;100.00
59608;BME280;45426;44.726;10.390;2023-02-20T11:57:59;101645.88;;;16.05;100.00
59608;BME280;45426;44.726;10.390;2023-02-20T12:00:26;101639.22;;;15.19;100.00
59608;BME280;45426;44.726;10.390;2023-02-20T12:03:03;101634.66;;;15.98;100.00
59608;BME280;45426;44.726;10.390;2023-02-20T12:05:42;101629.78;;;16.16;100.00
59608;BME280;45426;44.726;10.390;2023-02-20T12:10:52;101628.78;;;16.58;100.00
59608;BME280;45426;44.726;10.390;2023-02-20T12:13:19;101626.25;;;15.49;100.00
59608;BME280;45426;44.726;10.390;2023-02-20T12:15:51;101624.63;;;15.36;100.00
59608;BME280;45426;44.726;10.390;2023-02-20T12:22:00;101611.63;;;16.36;100.00
59608;BME280;45426;44.726;10.390;2023-02-20T12:26:58;101607.41;;;16.14;100.00
59608;BME280;45426;44.726;10.390;2023-02-20T12:32:25;101601.84;;;15.77;100.00
59608;BME280;45426;44.726;10.390;2023-02-20T12:35:29;101579.84;;;16.60;100.00
59608;BME280;45426;44.726;10.390;2023-02-20T12:42:09;101583.97;;;16.41;100.00
59608;BME280;45426;44.726;10.390;2023-02-20T12:44:21;101570.56;;;16.77;100.00
59608;BME280;45426;44.726;10.390;2023-02-20T12:50:22;101559.72;;;16.56;100.00
59608;BME280;45426;44.726;10.390;2023-02-20T13:01:05;101544.56;;;17.27;100.00
59608;BME280;45426;44.726;10.390;2023-02-20T13:05:58;101530.28;;;16.28;100.00
59608;BME280;45426;44.726;10.390;2023-02-20T13:08:28;101524.19;;;16.47;100.00
59608;BME280;45426;44.726;10.390;2023-02-20T13:11:04;101522.72;;;16.37;100.00
59608;BME280;45426;44.726;10.390;2023-02-20T13:13:37;101522.97;;;16.07;100.00
59608;BME280;45426;44.726;10.390;2023-02-20T13:16:16;101521.81;;;16.33;100.00
59608;BME280;45426;44.726;10.390;2023-02-20T13:18:47;101517.69;;;16.52;100.00
59608;BME280;45426;44.726;10.390;2023-02-20T13:21:27;101516.09;;;16.38;100.00
59608;BME280;45426;44.726;10.390;2023-02-20T13:24:12;101512.16;;;16.64;100.00
59608;BME280;45426;44.726;10.390;2023-02-20T13:26:51;101512.81;;;16.20;100.00
59608;BME280;45426;44.726;10.390;2023-02-20T13:29:19;101509.34;;;16.36;100.00
59608;BME280;45426;44.726;10.390;2023-02-20T13:36:42;101505.75;;;16.72;100.00
59608;BME280;45426;44.726;10.390;2023-02-20T13:57:47;101476.81;;;16.09;100.00
59608;BME280;45426;44.726;10.390;2023-02-20T14:02:44;101468.97;;;15.83;100.00
59608;BME280;45426;44.726;10.390;2023-02-20T14:05:20;101464.13;;;16.70;100.00
59608;BME280;45426;44.726;10.390;2023-02-20T14:07:46;101459.13;;;16.07;100.00
59608;BME280;45426;44.726;10.390;2023-02-20T14:10:22;101455.13;;;15.67;100.00
59608;BME280;45426;44.726;10.390;2023-02-20T14:13:00;101455.78;;;16.26;100.00
59608;BME280;45426;44.726;10.390;2023-02-20T14:15:28;101458.44;;;16.10;100.00
59608;BME280;45426;44.726;10.390;2023-02-20T14:17:55;101459.72;;;16.53;100.00
59608;BME280;45426;44.726;10.390;2023-02-20T14:20:25;101451.78;;;16.36;100.00
59608;BME280;45426;44.726;10.390;2023-02-20T14:23:06;101452.22;;;16.38;100.00
59608;BME280;45426;44.726;10.390;2023-02-20T14:25:31;101445.28;;;15.54;100.00
59608;BME280;45426;44.726;10.390;2023-02-20T14:28:27;101443.84;;;15.94;100.00
59608;BME280;45426;44.726;10.390;2023-02-20T14:31:19;101440.69;;;16.32;100.00
59608;BME280;45426;44.726;10.390;2023-02-20T14:33:49;101436.88;;;15.96;100.00
59608;BME280;45426;44.726;10.390;2023-02-20T14:36:33;101440.00;;;16.35;100.00
59608;BME280;45426;44.726;10.390;2023-02-20T14:41:52;101434.25;;;16.00;100.00
59608;BME280;45426;44.726;10.390;2023-02-20T14:44:19;101431.78;;;16.35;100.00
59608;BME280;45426;44.726;10.390;2023-02-20T14:46:46;101438.78;;;16.08;100.00
59608;BME280;45426;44.726;10.390;2023-02-20T14:49:22;101430.22;;;16.22;100.00
59608;BME280;45426;44.726;10.390;2023-02-20T14:51:48;101427.81;;;16.08;100.00